createdAt,value
2018-08-16T00:01:16.569Z,64.32
2018-08-16T00:03:44.094Z,63.92
2018-08-16T00:06:11.644Z,63.82
2018-08-16T00:08:39.190Z,64.30
2018-08-16T00:11:06.703Z,64.04
2018-08-16T00:13:34.236Z,64.32
2018-08-16T00:16:01.772Z,64.57
2018-08-16T00:18:29.310Z,64.75
2018-08-16T00:20:56.843Z,65.09
2018-08-16T00:23:24.391Z,64.83
2018-08-16T00:25:51.902Z,64.84
2018-08-16T00:28:19.439Z,64.76
2018-08-16T00:30:46.949Z,65.52
2018-08-16T00:33:14.492Z,65.00
2018-08-16T00:35:42.021Z,64.97
2018-08-16T00:38:09.555Z,65.58
2018-08-16T00:40:37.072Z,65.07
2018-08-16T00:43:04.623Z,65.33
2018-08-16T00:45:32.128Z,64.60
2018-08-16T00:47:59.663Z,64.29
2018-08-16T00:50:27.172Z,65.23
2018-08-16T00:52:54.701Z,64.50
2018-08-16T00:55:22.198Z,64.51
2018-08-16T00:57:49.731Z,64.86
2018-08-16T01:00:17.558Z,64.06
2018-08-16T01:02:45.448Z,64.19
2018-08-16T01:05:13.386Z,64.04
2018-08-16T01:07:41.013Z,64.46
2018-08-16T01:10:09.331Z,64.53
2018-08-16T01:12:36.848Z,64.58
2018-08-16T01:15:05.300Z,64.65
2018-08-16T01:17:32.836Z,64.75
2018-08-16T01:20:00.362Z,64.01
2018-08-16T01:22:27.908Z,64.59
2018-08-16T01:24:55.440Z,63.99
2018-08-16T01:27:22.988Z,64.41
2018-08-16T01:29:50.497Z,64.15
2018-08-16T01:32:18.043Z,64.29
2018-08-16T01:34:45.539Z,63.66
2018-08-16T01:37:13.091Z,63.22
2018-08-16T01:39:40.604Z,64.54
2018-08-16T01:42:08.120Z,63.56
2018-08-16T01:44:35.656Z,63.85
2018-08-16T01:47:03.151Z,64.06
2018-08-16T01:49:33.148Z,64.25
2018-08-16T01:52:00.732Z,64.79
2018-08-16T01:54:28.873Z,64.68
2018-08-16T01:56:56.508Z,64.92
2018-08-16T01:59:24.054Z,64.97
2018-08-16T02:01:52.139Z,65.03
2018-08-16T02:04:19.725Z,65.14
2018-08-16T02:06:47.671Z,66.06
2018-08-16T02:09:15.227Z,66.21
2018-08-16T02:11:42.741Z,65.68
2018-08-16T02:14:10.268Z,65.88
2018-08-16T02:16:38.308Z,65.51
2018-08-16T02:19:05.895Z,65.91
2018-08-16T02:21:33.412Z,65.61
2018-08-16T02:24:01.416Z,65.30
2018-08-16T02:26:28.956Z,65.60
2018-08-16T02:28:56.479Z,65.68
2018-08-16T02:31:23.988Z,65.89
2018-08-16T02:33:51.662Z,65.47
2018-08-16T02:36:19.182Z,65.77
2018-08-16T02:38:46.708Z,65.15
2018-08-16T02:41:14.220Z,66.06
2018-08-16T02:43:41.745Z,65.14
2018-08-16T02:46:09.479Z,65.87
2018-08-16T02:48:37.048Z,64.96
2018-08-16T02:51:04.569Z,65.29
2018-08-16T02:53:32.109Z,65.63
2018-08-16T02:55:59.652Z,65.29
2018-08-16T02:58:27.219Z,65.58
2018-08-16T03:00:54.731Z,65.02
2018-08-16T03:03:22.270Z,65.68
2018-08-16T03:05:49.792Z,65.35
2018-08-16T03:08:17.340Z,64.99
2018-08-16T03:10:44.848Z,64.85
2018-08-16T03:13:12.363Z,64.52
2018-08-16T03:15:39.912Z,65.44
2018-08-16T03:18:07.496Z,65.58
2018-08-16T03:20:35.032Z,65.35
2018-08-16T03:23:02.547Z,65.09
2018-08-16T03:25:30.337Z,65.86
2018-08-16T03:27:57.855Z,65.30
2018-08-16T03:30:25.384Z,65.53
2018-08-16T03:32:52.903Z,64.96
2018-08-16T03:35:20.509Z,65.30
2018-08-16T03:37:47.958Z,65.06
2018-08-16T03:40:15.516Z,65.07
2018-08-16T03:42:43.043Z,65.46
2018-08-16T03:45:10.576Z,64.80
2018-08-16T03:47:38.377Z,64.85
2018-08-16T03:50:06.036Z,64.55
2018-08-16T03:52:33.627Z,64.70
2018-08-16T03:55:01.191Z,64.72
2018-08-16T03:57:28.696Z,64.54
2018-08-16T03:59:56.229Z,64.61
2018-08-16T04:02:23.738Z,64.01
2018-08-16T04:04:51.268Z,64.54
2018-08-16T04:07:18.817Z,64.81
2018-08-16T04:09:46.327Z,64.18
2018-08-16T04:12:13.844Z,64.27
2018-08-16T04:14:41.385Z,64.30
2018-08-16T04:17:08.946Z,64.05
2018-08-16T04:19:36.485Z,63.43
2018-08-16T04:22:04.004Z,64.35
2018-08-16T04:24:31.532Z,63.52
2018-08-16T04:26:59.044Z,63.51
2018-08-16T04:29:26.592Z,63.68
2018-08-16T04:31:54.116Z,63.65
2018-08-16T04:34:21.632Z,63.46
2018-08-16T04:36:49.167Z,63.57
2018-08-16T04:39:16.691Z,63.86
2018-08-16T04:41:44.448Z,63.82
2018-08-16T04:44:11.769Z,64.39
2018-08-16T04:46:39.295Z,64.34
2018-08-16T04:49:06.832Z,64.02
2018-08-16T04:51:34.372Z,63.70
2018-08-16T04:54:01.875Z,64.03
2018-08-16T04:56:29.412Z,64.34
2018-08-16T04:58:56.924Z,64.08
2018-08-16T05:01:24.456Z,64.91
2018-08-16T05:03:51.964Z,64.65
2018-08-16T05:06:19.488Z,65.56
2018-08-16T05:08:46.992Z,64.82
2018-08-16T05:11:14.570Z,65.24
2018-08-16T05:13:42.087Z,64.70
2018-08-16T05:16:09.613Z,64.49
2018-08-16T05:18:37.216Z,64.08
2018-08-16T05:21:04.747Z,63.78
2018-08-16T05:23:32.255Z,63.76
2018-08-16T05:25:59.768Z,64.82
2018-08-16T05:28:27.295Z,65.11
2018-08-16T05:30:54.811Z,64.89
2018-08-16T05:33:22.383Z,65.28
2018-08-16T05:35:49.892Z,64.56
2018-08-16T05:38:17.424Z,65.17
2018-08-16T05:40:44.923Z,64.70
2018-08-16T05:43:12.524Z,64.80
2018-08-16T05:45:39.983Z,64.61
2018-08-16T05:48:07.524Z,64.34
2018-08-16T05:50:35.252Z,63.87
2018-08-16T05:53:02.770Z,63.30
2018-08-16T05:55:30.264Z,62.97
2018-08-16T05:57:57.784Z,63.51
2018-08-16T06:00:25.279Z,62.87
2018-08-16T06:02:52.872Z,62.38
2018-08-16T06:05:20.375Z,60.93
2018-08-16T06:07:47.908Z,61.54
2018-08-16T06:10:15.411Z,60.52
2018-08-16T06:12:43.062Z,60.38
2018-08-16T06:15:10.680Z,59.62
2018-08-16T06:17:38.216Z,58.99
2018-08-16T06:20:07.132Z,59.68
2018-08-16T06:22:34.635Z,58.26
2018-08-16T06:25:02.163Z,59.47
2018-08-16T06:27:29.691Z,58.22
2018-08-16T06:29:57.211Z,58.07
2018-08-16T06:32:24.715Z,57.66
2018-08-16T06:34:52.235Z,56.69
2018-08-16T06:37:19.743Z,57.30
2018-08-16T06:39:47.271Z,57.68
2018-08-16T06:42:14.788Z,56.42
2018-08-16T06:44:42.307Z,56.65
2018-08-16T06:47:13.695Z,57.77
2018-08-16T06:49:41.240Z,57.41
2018-08-16T06:52:08.752Z,57.95
2018-08-16T06:54:36.273Z,57.72
2018-08-16T06:57:03.772Z,57.97
2018-08-16T06:59:31.308Z,57.86
2018-08-16T07:01:58.816Z,57.19
2018-08-16T07:04:26.392Z,57.68
2018-08-16T07:06:53.892Z,57.63
2018-08-16T07:09:21.414Z,56.49
2018-08-16T07:11:48.910Z,57.08
2018-08-16T07:14:16.447Z,56.43
2018-08-16T07:16:43.947Z,56.19
2018-08-16T07:19:11.827Z,55.63
2018-08-16T07:21:39.333Z,55.68
2018-08-16T07:24:06.859Z,56.31
2018-08-16T07:26:34.430Z,55.22
2018-08-16T07:29:01.957Z,54.54
2018-08-16T07:31:29.450Z,55.42
2018-08-16T07:33:57.021Z,54.37
2018-08-16T07:36:24.548Z,53.70
2018-08-16T07:38:52.055Z,54.18
2018-08-16T07:41:19.640Z,54.21
2018-08-16T07:43:47.159Z,54.06
2018-08-16T07:46:14.806Z,53.81
2018-08-16T07:48:42.307Z,54.25
2018-08-16T07:51:09.874Z,54.18
2018-08-16T07:53:37.364Z,53.77
2018-08-16T07:56:04.967Z,53.12
2018-08-16T07:58:32.615Z,52.58
2018-08-16T08:01:00.071Z,52.57
2018-08-16T08:03:27.672Z,52.15
2018-08-16T08:05:55.215Z,51.82
2018-08-16T08:08:22.722Z,51.62
2018-08-16T08:10:50.252Z,51.23
2018-08-16T08:13:17.759Z,50.95
2018-08-16T08:15:45.373Z,51.46
2018-08-16T08:18:12.884Z,51.51
2018-08-16T08:20:40.408Z,50.84
2018-08-16T08:23:08.450Z,50.27
2018-08-16T08:25:36.012Z,50.71
2018-08-16T08:28:03.527Z,49.15
2018-08-16T08:30:31.055Z,50.57
2018-08-16T08:32:58.558Z,49.48
2018-08-16T08:35:26.103Z,48.48
2018-08-16T08:37:59.672Z,49.30
2018-08-16T08:40:27.197Z,48.93
2018-08-16T08:42:54.908Z,48.34
2018-08-16T08:45:22.447Z,49.07
2018-08-16T08:47:54.192Z,48.90
2018-08-16T08:50:21.831Z,48.37
2018-08-16T08:52:49.280Z,47.61
2018-08-16T08:55:22.520Z,47.26
2018-08-16T08:57:55.691Z,46.72
2018-08-16T09:00:24.288Z,47.52
2018-08-16T09:02:51.805Z,45.81
2018-08-16T09:05:19.331Z,46.02
2018-08-16T09:07:46.843Z,46.23
2018-08-16T09:11:18.516Z,46.78
2018-08-16T09:13:53.000Z,46.66
2018-08-16T09:16:21.251Z,46.31
2018-08-16T09:18:48.763Z,44.89
2018-08-16T09:21:16.664Z,44.60
2018-08-16T09:23:44.234Z,44.91
2018-08-16T09:26:17.063Z,44.18
2018-08-16T09:28:44.569Z,44.33
2018-08-16T09:31:18.016Z,44.89
2018-08-16T09:33:51.019Z,44.11
2018-08-16T09:36:18.572Z,44.13
2018-08-16T09:38:46.083Z,43.73
2018-08-16T09:41:13.603Z,43.65
2018-08-16T09:43:41.147Z,44.32
2018-08-16T09:47:12.591Z,43.10
2018-08-16T09:49:42.476Z,43.63
2018-08-16T09:52:10.668Z,44.71
2018-08-16T09:54:38.222Z,43.88
2018-08-16T09:57:06.927Z,42.45
2018-08-16T09:59:34.442Z,43.02
2018-08-16T10:02:02.001Z,43.23
2018-08-16T10:04:29.875Z,42.35
2018-08-16T10:06:57.550Z,42.61
2018-08-16T10:09:26.140Z,42.86
2018-08-16T10:11:54.083Z,41.43
2018-08-16T10:14:21.871Z,41.25
2018-08-16T10:16:49.392Z,40.60
2018-08-16T10:19:16.919Z,41.12
2018-08-16T10:21:44.444Z,41.79
2018-08-16T10:24:11.971Z,41.45
2018-08-16T10:26:39.546Z,40.82
2018-08-16T10:29:07.421Z,42.14
2018-08-16T10:31:34.931Z,41.75
2018-08-16T10:34:02.988Z,40.81
2018-08-16T10:36:30.496Z,41.21
2018-08-16T10:38:58.037Z,41.00
2018-08-16T10:41:25.543Z,39.89
2018-08-16T10:43:53.092Z,41.22
2018-08-16T10:46:20.640Z,40.73
2018-08-16T10:48:48.199Z,40.72
2018-08-16T10:51:15.708Z,41.01
2018-08-16T10:53:43.256Z,40.34
2018-08-16T10:56:10.761Z,40.68
2018-08-16T10:58:38.299Z,40.48
2018-08-16T11:01:05.813Z,40.13
2018-08-16T11:03:33.352Z,39.80
2018-08-16T11:06:00.859Z,39.05
2018-08-16T11:08:28.395Z,39.90
2018-08-16T11:10:55.903Z,39.54
2018-08-16T11:13:23.464Z,38.80
2018-08-16T11:15:50.972Z,39.44
2018-08-16T11:18:18.507Z,38.56
2018-08-16T11:20:46.018Z,39.49
2018-08-16T11:23:13.624Z,38.98
2018-08-16T11:25:41.143Z,39.17
2018-08-16T11:28:09.100Z,39.84
2018-08-16T11:30:36.879Z,38.46
2018-08-16T11:33:04.417Z,37.95
2018-08-16T11:35:31.947Z,37.65
2018-08-16T11:37:59.596Z,37.39
2018-08-16T11:40:27.068Z,38.49
2018-08-16T11:42:54.592Z,37.91
2018-08-16T11:45:22.132Z,38.61
2018-08-16T11:47:49.655Z,38.57
2018-08-16T11:50:17.215Z,38.69
2018-08-16T11:52:44.731Z,37.35
2018-08-16T11:55:12.268Z,37.72
2018-08-16T11:57:39.776Z,37.16
2018-08-16T12:00:07.359Z,37.13
2018-08-16T12:02:34.893Z,37.39
2018-08-16T12:05:02.422Z,37.36
2018-08-16T12:07:29.929Z,37.83
2018-08-16T12:09:57.476Z,36.88
2018-08-16T12:12:25.004Z,36.33
2018-08-16T12:14:52.533Z,37.60
2018-08-16T12:17:20.044Z,37.71
2018-08-16T12:19:47.563Z,37.47
2018-08-16T12:22:15.072Z,35.74
2018-08-16T12:24:42.636Z,36.50
2018-08-16T12:27:11.086Z,36.67
2018-08-16T12:29:38.622Z,36.95
2018-08-16T12:32:06.133Z,36.77
2018-08-16T12:34:34.028Z,36.93
2018-08-16T12:37:01.567Z,36.71
2018-08-16T12:39:29.096Z,36.11
2018-08-16T12:41:56.679Z,36.14
2018-08-16T12:44:24.233Z,36.01
2018-08-16T12:46:51.767Z,34.85
2018-08-16T12:49:19.320Z,35.77
2018-08-16T12:51:46.881Z,35.01
2018-08-16T12:54:14.449Z,34.81
2018-08-16T12:56:41.997Z,35.24
2018-08-16T12:59:09.526Z,35.19
2018-08-16T13:01:37.074Z,34.13
2018-08-16T13:04:04.760Z,34.70
2018-08-16T13:06:32.369Z,35.53
2018-08-16T13:08:59.957Z,35.41
2018-08-16T13:11:27.455Z,34.76
2018-08-16T13:13:54.976Z,35.09
2018-08-16T13:16:22.520Z,34.91
2018-08-16T13:18:50.028Z,35.09
2018-08-16T13:21:17.556Z,34.41
2018-08-16T13:23:45.170Z,34.51
2018-08-16T13:26:12.652Z,34.61
2018-08-16T13:28:40.183Z,34.43
2018-08-16T13:31:07.726Z,35.47
2018-08-16T13:33:35.248Z,34.31
2018-08-16T13:36:02.791Z,34.64
2018-08-16T13:38:30.304Z,35.43
2018-08-16T13:40:57.863Z,36.03
2018-08-16T13:43:25.392Z,33.94
2018-08-16T13:45:52.980Z,34.17
2018-08-16T13:48:20.624Z,34.29
2018-08-16T13:50:48.208Z,32.76
2018-08-16T13:53:15.719Z,32.94
2018-08-16T13:55:43.263Z,34.15
2018-08-16T13:58:10.900Z,33.07
2018-08-16T14:00:38.533Z,33.70
2018-08-16T14:03:06.171Z,32.95
2018-08-16T14:05:33.853Z,34.91
2018-08-16T14:08:01.972Z,34.29
2018-08-16T14:10:29.600Z,33.64
2018-08-16T14:12:57.318Z,34.71
2018-08-16T14:15:24.871Z,34.87
2018-08-16T14:17:52.411Z,33.01
2018-08-16T14:20:19.959Z,33.34
2018-08-16T14:22:47.535Z,34.49
2018-08-16T14:25:15.100Z,33.74
2018-08-16T14:27:42.641Z,34.64
2018-08-16T14:30:10.199Z,33.30
2018-08-16T14:32:37.980Z,33.32
2018-08-16T14:35:05.545Z,33.63
2018-08-16T14:37:33.084Z,32.39
2018-08-16T14:40:00.604Z,33.29
2018-08-16T14:42:28.221Z,33.13
2018-08-16T14:44:55.815Z,31.40
2018-08-16T14:47:23.728Z,32.04
2018-08-16T14:49:51.279Z,33.02
2018-08-16T14:52:18.837Z,31.65
2018-08-16T14:54:46.355Z,32.48
2018-08-16T14:57:13.899Z,32.96
2018-08-16T14:59:41.416Z,32.46
2018-08-16T15:02:08.969Z,33.06
2018-08-16T15:04:36.483Z,31.83
2018-08-16T15:07:04.916Z,32.40
2018-08-16T15:09:32.484Z,32.81
2018-08-16T15:12:00.027Z,32.96
2018-08-16T15:14:27.540Z,32.91
2018-08-16T15:16:55.072Z,32.69
2018-08-16T15:19:22.588Z,32.18
2018-08-16T15:21:50.204Z,32.41
2018-08-16T15:24:19.220Z,33.21
2018-08-16T15:26:47.183Z,32.97
2018-08-16T15:29:14.704Z,33.36
2018-08-16T15:31:42.299Z,32.87
2018-08-16T15:34:09.836Z,33.84
2018-08-16T15:36:37.376Z,32.74
2018-08-16T15:39:06.233Z,32.62
2018-08-16T15:41:33.755Z,32.25
2018-08-16T15:44:02.163Z,32.46
2018-08-16T15:46:29.716Z,33.58
2018-08-16T15:48:57.251Z,33.09
2018-08-16T15:51:24.791Z,32.81
2018-08-16T15:53:52.297Z,32.38
2018-08-16T15:56:19.839Z,33.35
2018-08-16T15:58:47.370Z,32.87
2018-08-16T16:01:15.076Z,32.30
2018-08-16T16:03:42.631Z,33.13
2018-08-16T16:06:10.310Z,33.36
2018-08-16T16:08:37.717Z,32.81
2018-08-16T16:11:05.284Z,33.11
2018-08-16T16:13:32.824Z,32.93
2018-08-16T16:16:00.328Z,33.76
2018-08-16T16:18:27.866Z,32.87
2018-08-16T16:20:55.376Z,33.28
2018-08-16T16:23:22.935Z,33.36
2018-08-16T16:25:50.473Z,32.98
2018-08-16T16:28:18.007Z,32.72
2018-08-16T16:30:45.567Z,33.60
2018-08-16T16:33:13.115Z,32.76
2018-08-16T16:35:40.636Z,33.28
2018-08-16T16:38:08.180Z,33.32
2018-08-16T16:40:35.800Z,32.63
2018-08-16T16:43:03.339Z,34.01
2018-08-16T16:45:30.875Z,34.01
2018-08-16T16:47:58.414Z,33.35
2018-08-16T16:50:26.021Z,33.85
2018-08-16T16:52:53.583Z,33.86
2018-08-16T16:55:21.089Z,33.84
2018-08-16T16:57:48.608Z,34.88
2018-08-16T17:00:16.111Z,35.03
2018-08-16T17:02:43.660Z,33.95
2018-08-16T17:05:11.455Z,34.42
2018-08-16T17:07:39.064Z,34.80
2018-08-16T17:10:07.466Z,35.18
2018-08-16T17:12:34.992Z,35.49
2018-08-16T17:15:02.532Z,35.76
2018-08-16T17:17:30.060Z,34.95
2018-08-16T17:19:57.660Z,35.87
2018-08-16T17:22:25.228Z,35.52
2018-08-16T17:24:52.808Z,35.59
2018-08-16T17:27:20.368Z,35.77
2018-08-16T17:29:47.882Z,36.05
2018-08-16T17:33:29.502Z,36.23
2018-08-16T17:36:16.543Z,36.91
2018-08-16T17:38:44.067Z,37.37
2018-08-16T17:41:11.632Z,36.93
2018-08-16T17:43:39.172Z,37.75
2018-08-16T17:46:06.688Z,37.63
2018-08-16T17:48:34.272Z,37.79
2018-08-16T17:51:01.797Z,38.07
2018-08-16T17:53:29.330Z,37.99
2018-08-16T18:19:48.443Z,42.89
2018-08-16T18:22:15.992Z,42.57
2018-08-16T18:24:43.537Z,42.61
2018-08-16T18:27:11.054Z,42.12
2018-08-16T18:32:57.280Z,54.07
2018-08-16T18:38:41.237Z,38.19
2018-08-16T18:41:09.993Z,37.99
2018-08-16T18:43:38.276Z,36.80
2018-08-16T18:46:06.812Z,36.90
2018-08-16T18:48:35.205Z,36.57
2018-08-16T18:51:03.440Z,37.50
2018-08-16T18:53:31.726Z,37.31
2018-08-16T18:56:00.029Z,37.20
2018-08-16T18:58:28.308Z,36.16
2018-08-16T19:00:56.545Z,36.27
2018-08-16T19:03:24.860Z,37.48
2018-08-16T19:05:53.085Z,37.83
2018-08-16T19:08:21.416Z,37.87
2018-08-16T19:10:49.651Z,38.61
2018-08-16T19:13:17.956Z,38.44
2018-08-16T19:15:46.332Z,38.02
2018-08-16T19:18:14.568Z,39.02
2018-08-16T19:20:43.029Z,38.54
2018-08-16T19:23:11.329Z,39.40
2018-08-16T19:25:39.647Z,38.65
2018-08-16T19:28:07.895Z,38.98
2018-08-16T19:30:36.156Z,38.51
2018-08-16T19:33:04.429Z,39.51
2018-08-16T19:35:32.684Z,39.35
2018-08-16T19:38:00.949Z,39.12
2018-08-16T19:40:29.208Z,38.91
2018-08-16T19:42:57.436Z,39.69
2018-08-16T19:45:25.733Z,39.73
2018-08-16T19:47:53.973Z,39.83
2018-08-16T19:50:22.280Z,40.46
2018-08-16T19:52:50.526Z,40.85
2018-08-16T19:55:18.809Z,42.08
2018-08-16T19:57:47.288Z,42.47
2018-08-16T20:00:15.569Z,42.93
2018-08-16T20:02:43.808Z,43.53
2018-08-16T20:05:12.041Z,44.30
2018-08-16T20:07:40.264Z,43.61
2018-08-16T20:10:09.496Z,44.37
2018-08-16T20:12:38.032Z,44.45
2018-08-16T20:15:07.315Z,44.12
2018-08-16T20:17:36.302Z,44.47
2018-08-16T20:20:06.096Z,44.26
2018-08-16T20:22:34.664Z,44.22
2018-08-16T20:25:03.661Z,44.14
2018-08-16T20:27:31.908Z,43.71
2018-08-16T20:30:00.316Z,43.51
2018-08-16T20:32:28.584Z,44.05
2018-08-16T20:34:57.012Z,43.77
2018-08-16T20:37:25.248Z,43.54
2018-08-16T20:39:53.692Z,43.64
2018-08-16T20:42:21.924Z,43.78
2018-08-16T20:44:50.201Z,43.53
2018-08-16T20:47:18.424Z,44.26
2018-08-16T20:49:46.776Z,43.94
2018-08-16T20:52:15.096Z,44.24
2018-08-16T20:54:43.367Z,44.91
2018-08-16T20:57:11.671Z,44.89
2018-08-16T20:59:39.937Z,45.33
2018-08-16T21:02:08.238Z,45.04
2018-08-16T21:04:36.668Z,44.43
2018-08-16T21:07:05.202Z,45.31
2018-08-16T21:09:33.556Z,45.57
2018-08-16T21:12:01.884Z,45.14
2018-08-16T21:14:30.149Z,44.68
2018-08-16T21:16:58.408Z,45.50
2018-08-16T21:19:26.921Z,45.13
2018-08-16T21:21:55.184Z,44.78
2018-08-16T21:24:23.431Z,44.89
2018-08-16T21:26:51.801Z,45.45
2018-08-16T21:29:20.037Z,45.93
2018-08-16T21:31:48.304Z,45.89
2018-08-16T21:34:16.612Z,45.47
2018-08-16T21:36:44.866Z,45.58
2018-08-16T21:39:13.470Z,45.65
2018-08-16T21:41:41.732Z,45.54
2018-08-16T21:44:10.829Z,46.67
2018-08-16T21:46:39.088Z,46.01
2018-08-16T21:51:44.948Z,46.40
2018-08-16T21:54:13.188Z,46.36
2018-08-16T21:56:41.456Z,47.13
2018-08-16T21:59:09.716Z,46.74
2018-08-16T22:01:37.975Z,47.67
2018-08-16T22:04:06.204Z,48.00
2018-08-16T22:06:45.664Z,48.81
2018-08-16T22:09:13.932Z,49.34
2018-08-16T22:11:42.180Z,49.44
2018-08-16T22:14:10.449Z,49.33
2018-08-16T22:16:38.696Z,49.44
2018-08-16T22:19:06.928Z,48.64
2018-08-16T22:21:35.278Z,49.19
2018-08-16T22:24:03.528Z,48.84
2018-08-16T22:26:31.776Z,49.36
2018-08-16T22:29:00.010Z,49.37
2018-08-16T22:31:28.292Z,48.78
2018-08-16T22:33:56.585Z,49.05
2018-08-16T22:36:24.807Z,49.35
2018-08-16T22:38:53.057Z,48.78
2018-08-16T22:41:21.327Z,49.04
2018-08-16T22:43:49.589Z,48.91
2018-08-16T22:46:17.831Z,48.33
2018-08-16T22:48:46.076Z,48.75
2018-08-16T22:51:14.352Z,48.86
2018-08-16T22:53:42.588Z,48.54
2018-08-16T22:56:10.852Z,48.47
2018-08-16T22:58:39.115Z,48.85
2018-08-16T23:01:07.513Z,48.39
2018-08-16T23:03:35.780Z,48.20
2018-08-16T23:06:04.024Z,48.55
2018-08-16T23:08:32.276Z,48.44
2018-08-16T23:11:00.524Z,48.15
2018-08-16T23:13:28.812Z,48.24
2018-08-16T23:15:57.052Z,48.29
2018-08-16T23:18:25.366Z,48.43
2018-08-16T23:20:53.646Z,48.44
2018-08-16T23:23:21.897Z,49.26
2018-08-16T23:25:50.132Z,48.64
2018-08-16T23:28:18.439Z,49.08
2018-08-16T23:30:46.688Z,49.21
2018-08-16T23:33:14.932Z,49.20
2018-08-16T23:35:43.172Z,49.57
2018-08-16T23:38:11.428Z,49.31
2018-08-16T23:40:39.712Z,49.96
2018-08-16T23:43:08.324Z,50.13
2018-08-16T23:45:36.560Z,49.97
2018-08-16T23:48:16.316Z,49.55
2018-08-16T23:50:44.580Z,50.39
2018-08-16T23:53:12.851Z,50.12
2018-08-16T23:55:41.089Z,50.31
2018-08-16T23:58:09.356Z,50.38
